Terminal Aerodrome Forecast
Issued by NWS

Home | Current Version | Previous Version | Text Only | Print | Product List | Glossary On
Versions: 1 2 3 4 5 6 7 8 9 10 11 12 13 14 15 16 17 18 19 20
160
FTUS43 KDVN 150520
TAFBRL
TAF
KBRL 150520Z 1506/1606 VRB02KT P6SM BKN120
     FM151600 12005KT 6SM BR VCSH BKN070
     FM152100 09005KT 5SM -SNPL BR OVC025
     FM160200 10004KT 3SM -FZRA BR OVC015=

USA.gov is the U.S. government's official web portal to all federal, state and local government web resources and services.